createdAt,value
2023-05-05T00:01:08.715Z,54.35
2023-05-05T00:03:35.913Z,54.89
2023-05-05T00:06:03.084Z,55.46
2023-05-05T00:08:29.952Z,56.18
2023-05-05T00:10:57.446Z,56.38
2023-05-05T00:13:24.435Z,56.72
2023-05-05T00:15:52.466Z,57.30
2023-05-05T00:18:19.864Z,57.29
2023-05-05T00:20:47.328Z,58.08
2023-05-05T00:23:15.534Z,59.62
2023-05-05T00:25:41.992Z,60.58
2023-05-05T00:28:08.567Z,61.33
2023-05-05T00:30:37.298Z,61.23
2023-05-05T00:33:04.048Z,62.08
2023-05-05T00:35:30.604Z,62.49
2023-05-05T00:37:57.128Z,62.71
2023-05-05T00:40:25.023Z,62.87
2023-05-05T00:42:51.644Z,62.77
2023-05-05T00:45:19.924Z,63.41
2023-05-05T00:47:49.038Z,63.77
2023-05-05T00:50:26.927Z,63.23
2023-05-05T00:52:56.095Z,64.03
2023-05-05T00:55:22.689Z,63.48
2023-05-05T00:57:49.919Z,64.02
2023-05-05T01:00:16.869Z,64.00
2023-05-05T01:02:44.200Z,64.20
2023-05-05T01:05:13.206Z,64.25
2023-05-05T01:07:45.742Z,63.71
2023-05-05T01:10:20.364Z,63.81
2023-05-05T01:13:14.958Z,62.46
2023-05-05T01:15:51.850Z,63.35
2023-05-05T01:18:40.178Z,63.95
2023-05-05T01:21:43.122Z,63.56
2023-05-05T01:24:38.922Z,63.58
2023-05-05T01:27:20.384Z,63.44
2023-05-05T01:30:10.565Z,63.18
2023-05-05T01:32:45.835Z,63.36
2023-05-05T01:35:18.141Z,63.45
2023-05-05T01:37:52.128Z,62.80
2023-05-05T01:40:26.742Z,62.72
2023-05-05T01:42:55.501Z,62.53
2023-05-05T01:45:26.341Z,61.83
2023-05-05T01:47:55.795Z,61.23
2023-05-05T01:50:24.580Z,61.77
2023-05-05T01:52:52.635Z,61.33
2023-05-05T01:55:21.555Z,61.24
2023-05-05T01:57:49.934Z,61.37
2023-05-05T02:00:19.410Z,61.40
2023-05-05T02:02:49.171Z,61.17
2023-05-05T02:05:19.196Z,61.27
2023-05-05T02:07:46.240Z,60.94
2023-05-05T02:10:13.688Z,60.76
2023-05-05T02:12:42.682Z,60.80
2023-05-05T02:15:10.374Z,60.98
2023-05-05T02:17:40.622Z,61.06
2023-05-05T02:20:09.361Z,61.10
2023-05-05T02:22:36.079Z,60.90
2023-05-05T02:25:03.334Z,60.86
2023-05-05T02:27:32.573Z,61.18
2023-05-05T02:30:07.086Z,61.21
2023-05-05T02:32:39.449Z,61.29
2023-05-05T02:35:36.427Z,60.72
2023-05-05T02:38:06.090Z,61.15
2023-05-05T02:40:40.682Z,61.13
2023-05-05T02:43:10.865Z,61.27
2023-05-05T02:45:38.324Z,61.22
2023-05-05T02:48:05.977Z,61.29
2023-05-05T02:50:36.991Z,61.38
2023-05-05T02:53:25.180Z,61.68
2023-05-05T02:55:54.396Z,61.98
2023-05-05T02:58:34.589Z,62.07
2023-05-05T03:01:25.407Z,62.64
2023-05-05T03:04:03.722Z,62.73
2023-05-05T03:06:39.346Z,62.78
2023-05-05T03:09:27.649Z,62.26
2023-05-05T03:12:10.123Z,62.57
2023-05-05T03:14:55.356Z,63.42
2023-05-05T03:17:24.841Z,63.28
2023-05-05T03:19:52.160Z,63.33
2023-05-05T03:22:19.596Z,63.80
2023-05-05T03:24:51.390Z,63.73
2023-05-05T03:27:21.699Z,63.65
2023-05-05T03:29:48.212Z,63.70
2023-05-05T03:32:15.841Z,63.73
2023-05-05T03:34:43.384Z,64.11
2023-05-05T03:37:09.888Z,64.06
2023-05-05T03:39:38.261Z,64.38
2023-05-05T03:42:05.878Z,64.60
2023-05-05T03:44:35.261Z,64.44
2023-05-05T03:47:01.815Z,64.78
2023-05-05T03:49:30.449Z,64.99
2023-05-05T03:51:57.594Z,64.43
2023-05-05T03:54:24.214Z,65.03
2023-05-05T03:56:51.489Z,65.37
2023-05-05T03:59:18.069Z,65.51
2023-05-05T04:01:46.560Z,65.67
2023-05-05T04:04:13.331Z,65.95
2023-05-05T04:06:40.718Z,65.98
2023-05-05T04:09:07.811Z,65.98
2023-05-05T04:11:35.392Z,66.42
2023-05-05T04:14:01.978Z,66.07
2023-05-05T04:16:30.990Z,66.53
2023-05-05T04:18:58.622Z,66.93
2023-05-05T04:21:25.286Z,66.47
2023-05-05T04:23:52.328Z,67.10
2023-05-05T04:26:20.826Z,67.00
2023-05-05T04:28:47.395Z,67.56
2023-05-05T04:31:15.718Z,67.84
2023-05-05T04:33:43.743Z,67.48
2023-05-05T04:36:11.037Z,67.64
2023-05-05T04:38:37.755Z,67.63
2023-05-05T04:41:06.447Z,68.05
2023-05-05T04:43:33.984Z,68.34
2023-05-05T04:46:00.866Z,68.23
2023-05-05T04:48:30.874Z,68.63
2023-05-05T04:50:57.402Z,68.46
2023-05-05T04:53:23.934Z,68.85
2023-05-05T04:55:50.628Z,68.55
2023-05-05T04:58:17.841Z,68.93
2023-05-05T05:00:45.240Z,68.77
2023-05-05T05:03:12.105Z,68.91
2023-05-05T05:05:38.690Z,68.74
2023-05-05T05:08:05.577Z,68.90
2023-05-05T05:10:32.140Z,69.16
2023-05-05T05:12:58.761Z,69.23
2023-05-05T05:15:25.650Z,69.25
2023-05-05T05:17:52.261Z,69.59
2023-05-05T05:20:19.012Z,69.34
2023-05-05T05:22:46.373Z,69.55
2023-05-05T05:25:16.989Z,69.61
2023-05-05T05:27:44.144Z,69.98
2023-05-05T05:30:11.749Z,69.58
2023-05-05T05:32:38.550Z,70.02
2023-05-05T05:35:06.027Z,70.25
2023-05-05T05:37:37.044Z,70.14
2023-05-05T05:40:07.548Z,69.93
2023-05-05T05:42:35.286Z,70.49
2023-05-05T05:45:03.273Z,70.30
2023-05-05T05:47:30.433Z,70.43
2023-05-05T05:49:57.874Z,70.26
2023-05-05T05:52:24.508Z,70.23
2023-05-05T05:54:51.389Z,71.25
2023-05-05T05:57:18.867Z,71.10
2023-05-05T05:59:45.751Z,71.14
2023-05-05T06:02:12.427Z,71.06
2023-05-05T06:04:39.262Z,72.16
2023-05-05T06:07:06.235Z,72.31
2023-05-05T06:09:32.764Z,72.68
2023-05-05T06:11:59.615Z,72.97
2023-05-05T06:14:26.477Z,72.83
2023-05-05T06:16:53.688Z,73.64
2023-05-05T06:19:22.185Z,73.74
2023-05-05T06:21:48.934Z,74.61
2023-05-05T06:24:15.436Z,74.87
2023-05-05T06:26:42.092Z,74.66
2023-05-05T06:29:10.464Z,75.08
2023-05-05T06:31:38.415Z,75.41
2023-05-05T06:34:04.967Z,75.53
2023-05-05T06:36:32.305Z,75.73
2023-05-05T06:38:58.910Z,75.31
2023-05-05T06:41:25.472Z,75.45
2023-05-05T06:43:51.986Z,74.82
2023-05-05T06:46:18.625Z,74.66
2023-05-05T06:48:45.550Z,74.45
2023-05-05T06:51:12.131Z,74.34
2023-05-05T06:53:38.629Z,73.89
2023-05-05T06:56:05.392Z,74.31
2023-05-05T06:58:32.052Z,73.91
2023-05-05T07:00:58.613Z,74.36
2023-05-05T07:03:25.402Z,74.58
2023-05-05T07:05:53.847Z,74.45
2023-05-05T07:08:20.369Z,75.21
2023-05-05T07:10:47.213Z,74.49
2023-05-05T07:13:16.231Z,73.67
2023-05-05T07:15:49.132Z,74.09
2023-05-05T07:18:16.884Z,74.19
2023-05-05T07:20:46.705Z,74.99
2023-05-05T07:23:13.282Z,73.26
2023-05-05T07:25:39.829Z,74.18
2023-05-05T07:28:06.484Z,72.76
2023-05-05T07:30:33.023Z,73.19
2023-05-05T07:32:59.793Z,73.07
2023-05-05T07:35:26.450Z,72.37
2023-05-05T07:37:52.988Z,71.73
2023-05-05T07:40:19.718Z,71.01
2023-05-05T07:42:47.407Z,70.93
2023-05-05T07:45:13.924Z,71.09
2023-05-05T07:47:40.761Z,71.59
2023-05-05T07:50:08.376Z,71.00
2023-05-05T07:52:46.661Z,71.21
2023-05-05T07:55:18.174Z,70.08
2023-05-05T07:57:44.796Z,69.56
2023-05-05T08:00:13.270Z,69.95
2023-05-05T08:02:40.204Z,70.77
2023-05-05T08:05:07.573Z,70.09
2023-05-05T08:07:36.434Z,69.45
2023-05-05T08:10:03.066Z,69.69
2023-05-05T08:12:29.659Z,69.71
2023-05-05T08:14:56.172Z,70.54
2023-05-05T08:17:25.733Z,70.38
2023-05-05T08:19:52.965Z,69.88
2023-05-05T08:22:21.298Z,70.08
2023-05-05T08:24:47.868Z,71.04
2023-05-05T08:27:14.684Z,70.13
2023-05-05T08:29:41.201Z,69.29
2023-05-05T08:32:07.763Z,69.00
2023-05-05T08:34:34.311Z,68.62
2023-05-05T08:37:00.872Z,68.93
2023-05-05T08:39:27.447Z,68.87
2023-05-05T08:41:53.964Z,68.41
2023-05-05T08:44:20.599Z,68.69
2023-05-05T08:46:48.587Z,67.49
2023-05-05T08:49:17.434Z,67.73
2023-05-05T08:51:46.018Z,67.21
2023-05-05T08:54:19.818Z,67.22
2023-05-05T08:56:49.603Z,67.18
2023-05-05T08:59:17.293Z,67.85
2023-05-05T09:01:44.705Z,67.39
2023-05-05T09:04:11.311Z,67.46
2023-05-05T09:06:37.931Z,66.70
2023-05-05T09:09:04.523Z,66.97
2023-05-05T09:11:33.887Z,66.86
2023-05-05T09:14:01.730Z,67.03
2023-05-05T09:16:28.240Z,67.53
2023-05-05T09:19:02.472Z,67.58
2023-05-05T09:21:29.414Z,67.06
2023-05-05T09:24:12.699Z,67.31
2023-05-05T09:26:47.728Z,67.32
2023-05-05T09:29:21.452Z,67.91
2023-05-05T09:32:05.503Z,67.85
2023-05-05T09:34:34.941Z,67.56
2023-05-05T09:37:01.649Z,67.25
2023-05-05T09:39:28.316Z,66.76
2023-05-05T09:41:54.948Z,67.17
2023-05-05T09:44:35.252Z,66.97
2023-05-05T09:47:03.772Z,65.32
2023-05-05T09:49:31.861Z,65.13
2023-05-05T09:51:58.465Z,65.17
2023-05-05T09:54:29.762Z,64.53
2023-05-05T09:56:57.268Z,64.58
2023-05-05T09:59:24.389Z,64.13
2023-05-05T10:01:51.622Z,64.27
2023-05-05T10:04:29.573Z,64.97
2023-05-05T10:06:58.051Z,64.90
2023-05-05T10:09:25.950Z,63.95
2023-05-05T10:11:53.862Z,63.21
2023-05-05T10:14:20.790Z,63.53
2023-05-05T10:16:50.534Z,64.99
2023-05-05T10:19:19.550Z,66.38
2023-05-05T10:21:51.178Z,67.01
2023-05-05T10:24:22.625Z,65.92
2023-05-05T10:26:50.428Z,69.86
2023-05-05T10:29:40.024Z,70.29
2023-05-05T10:32:53.564Z,71.86
2023-05-05T10:35:23.020Z,72.27
2023-05-05T10:37:49.960Z,74.51
2023-05-05T10:40:17.832Z,75.02
2023-05-05T10:42:45.438Z,76.74
2023-05-05T10:45:12.306Z,77.44
2023-05-05T10:47:40.297Z,79.05
2023-05-05T10:50:25.993Z,78.22
2023-05-05T10:53:07.615Z,80.63
2023-05-05T10:55:46.310Z,80.98
2023-05-05T10:58:55.530Z,81.84
2023-05-05T11:01:29.771Z,83.33
2023-05-05T11:04:19.240Z,81.86
2023-05-05T11:07:14.736Z,82.59
2023-05-05T11:09:56.025Z,83.49
2023-05-05T11:12:22.731Z,82.48
2023-05-05T11:15:27.505Z,81.72
2023-05-05T11:17:57.699Z,81.86
2023-05-05T11:20:36.862Z,81.92
2023-05-05T11:23:03.424Z,82.75
2023-05-05T11:25:42.036Z,84.04
2023-05-05T11:28:16.960Z,84.73
2023-05-05T11:30:59.230Z,83.51
2023-05-05T11:33:35.950Z,84.17
2023-05-05T11:36:06.777Z,85.04
2023-05-05T11:38:36.277Z,85.54
2023-05-05T11:41:17.274Z,86.07
2023-05-05T11:43:43.862Z,86.05
2023-05-05T11:46:15.469Z,87.04
2023-05-05T11:48:48.455Z,83.08
2023-05-05T11:51:16.836Z,85.98
2023-05-05T11:53:48.337Z,87.00
2023-05-05T11:56:24.866Z,88.00
2023-05-05T11:59:10.585Z,87.37
2023-05-05T12:01:41.359Z,86.76
2023-05-05T12:04:15.287Z,87.05
2023-05-05T12:06:42.618Z,87.22
2023-05-05T12:09:20.995Z,86.05
2023-05-05T12:11:50.464Z,86.41
2023-05-05T12:14:16.947Z,86.84
2023-05-05T12:17:02.543Z,86.22
2023-05-05T12:19:32.982Z,87.01
2023-05-05T12:22:04.252Z,87.26
2023-05-05T12:24:30.866Z,87.30
2023-05-05T12:27:10.713Z,87.31
2023-05-05T12:29:37.719Z,86.92
2023-05-05T12:32:04.482Z,86.64
2023-05-05T12:34:32.119Z,86.39
2023-05-05T12:36:58.878Z,85.85
2023-05-05T12:39:35.417Z,85.73
2023-05-05T12:42:03.582Z,86.14
2023-05-05T12:44:39.813Z,86.93
2023-05-05T12:47:07.228Z,86.88
2023-05-05T12:49:51.245Z,87.22
2023-05-05T12:52:18.365Z,88.79
2023-05-05T12:54:58.810Z,88.54
2023-05-05T12:57:26.089Z,87.27
2023-05-05T12:59:53.337Z,87.81
2023-05-05T13:02:20.717Z,87.87
2023-05-05T13:04:52.355Z,88.21
2023-05-05T13:07:20.987Z,88.56
2023-05-05T13:09:49.228Z,88.05
2023-05-05T13:12:17.828Z,87.58
2023-05-05T13:14:44.949Z,86.62
2023-05-05T13:17:11.729Z,87.20
2023-05-05T13:19:42.453Z,87.56
2023-05-05T13:22:13.150Z,88.02
2023-05-05T13:24:50.728Z,88.84
2023-05-05T13:27:18.839Z,89.83
2023-05-05T13:29:45.374Z,90.40
2023-05-05T13:32:11.944Z,89.77
2023-05-05T13:34:39.263Z,90.17
2023-05-05T13:37:06.156Z,90.88
2023-05-05T13:39:32.683Z,91.35
2023-05-05T13:41:59.286Z,91.93
2023-05-05T13:44:25.899Z,91.80
2023-05-05T13:46:52.552Z,92.04
2023-05-05T13:49:20.038Z,92.12
2023-05-05T13:51:47.036Z,92.27
2023-05-05T13:54:13.830Z,92.55
2023-05-05T13:56:40.568Z,92.42
2023-05-05T13:59:07.184Z,92.12
2023-05-05T14:01:33.831Z,91.89
2023-05-05T14:04:02.806Z,91.14
2023-05-05T14:06:31.251Z,90.14
2023-05-05T14:08:57.854Z,89.78
2023-05-05T14:11:24.405Z,90.70
2023-05-05T14:13:52.004Z,90.13
2023-05-05T14:16:18.858Z,88.53
2023-05-05T14:18:45.616Z,89.26
2023-05-05T14:21:12.273Z,88.66
2023-05-05T14:23:38.852Z,88.13
2023-05-05T14:26:05.449Z,87.88
2023-05-05T14:28:31.967Z,87.45
2023-05-05T14:30:58.489Z,88.66
2023-05-05T14:33:25.488Z,88.60
2023-05-05T14:35:52.115Z,87.46
2023-05-05T14:38:18.641Z,87.24
2023-05-05T14:40:45.314Z,88.76
2023-05-05T14:43:11.888Z,87.03
2023-05-05T14:45:38.437Z,86.60
2023-05-05T14:48:05.071Z,88.12
2023-05-05T14:50:31.647Z,88.53
2023-05-05T14:52:58.220Z,89.00
2023-05-05T14:55:25.026Z,88.95
2023-05-05T14:57:51.899Z,89.98
2023-05-05T15:00:18.615Z,90.30
2023-05-05T15:02:45.490Z,90.01
2023-05-05T15:05:12.345Z,90.21
2023-05-05T15:07:40.130Z,89.49
2023-05-05T15:10:07.593Z,88.09
2023-05-05T15:12:34.351Z,87.30
2023-05-05T15:15:00.978Z,85.90
2023-05-05T15:17:27.637Z,87.91
2023-05-05T15:19:54.259Z,87.60
2023-05-05T15:22:20.780Z,88.18
2023-05-05T15:24:47.301Z,84.08
2023-05-05T15:27:14.123Z,85.76
2023-05-05T15:29:40.653Z,86.13
2023-05-05T15:32:07.401Z,85.89
2023-05-05T15:34:34.077Z,85.12
2023-05-05T15:37:00.613Z,84.74
2023-05-05T15:39:27.100Z,85.72
2023-05-05T15:41:53.676Z,87.69
2023-05-05T15:44:20.143Z,87.21
2023-05-05T15:49:13.322Z,86.26
2023-05-05T15:51:39.874Z,87.34
2023-05-05T15:54:06.553Z,88.26
2023-05-05T15:56:33.690Z,89.37
2023-05-05T15:59:00.324Z,88.77
2023-05-05T16:01:26.930Z,88.04
2023-05-05T16:03:53.467Z,88.89
2023-05-05T16:06:19.979Z,88.00
2023-05-05T16:08:47.717Z,89.10
2023-05-05T16:11:14.409Z,88.24
2023-05-05T16:13:42.391Z,89.27
2023-05-05T16:16:08.964Z,92.49
2023-05-05T16:18:35.501Z,90.99
2023-05-05T16:21:02.620Z,88.12
2023-05-05T16:23:29.104Z,88.97
2023-05-05T16:25:55.637Z,86.39
2023-05-05T16:28:22.301Z,83.13
2023-05-05T16:30:48.820Z,81.90
2023-05-05T16:33:15.450Z,81.28
2023-05-05T16:35:45.721Z,81.71
2023-05-05T16:38:13.117Z,81.84
2023-05-05T16:40:40.139Z,81.93
2023-05-05T16:43:06.636Z,83.63
2023-05-05T16:45:33.216Z,80.83
2023-05-05T16:47:59.834Z,79.07
2023-05-05T16:50:26.646Z,79.15
2023-05-05T16:52:53.126Z,78.27
2023-05-05T16:55:19.758Z,76.85
2023-05-05T16:57:47.203Z,76.05
2023-05-05T17:00:14.472Z,78.84
2023-05-05T17:02:41.124Z,74.28
2023-05-05T17:05:08.285Z,71.76
2023-05-05T17:07:35.036Z,73.91
2023-05-05T17:10:01.693Z,71.18
2023-05-05T17:12:28.331Z,73.50
2023-05-05T17:14:54.906Z,72.65
2023-05-05T17:17:21.410Z,68.79
2023-05-05T17:19:47.907Z,71.88
2023-05-05T17:22:14.390Z,72.90
2023-05-05T17:24:40.984Z,74.56
2023-05-05T17:27:07.575Z,74.15
2023-05-05T17:29:39.320Z,74.48
2023-05-05T17:32:06.049Z,75.65
2023-05-05T17:34:32.679Z,77.04
2023-05-05T17:36:59.217Z,75.56
2023-05-05T17:39:25.821Z,75.49
2023-05-05T17:41:52.352Z,76.08
2023-05-05T17:44:18.809Z,77.22
2023-05-05T17:46:45.561Z,76.16
2023-05-05T17:49:12.268Z,77.50
2023-05-05T17:51:38.878Z,78.58
2023-05-05T17:54:05.595Z,77.50
2023-05-05T17:56:32.063Z,77.72
2023-05-05T17:58:58.546Z,78.25
2023-05-05T18:01:26.691Z,78.24
2023-05-05T18:03:53.342Z,79.31
2023-05-05T18:06:19.932Z,79.16
2023-05-05T18:08:46.613Z,80.61
2023-05-05T18:11:13.190Z,79.41
2023-05-05T18:13:39.819Z,80.21
2023-05-05T18:16:06.739Z,80.14
2023-05-05T18:18:33.380Z,79.83
2023-05-05T18:21:00.041Z,79.58
2023-05-05T18:23:26.633Z,80.17
2023-05-05T18:25:53.167Z,80.41
2023-05-05T18:28:20.306Z,80.02
2023-05-05T18:30:46.824Z,80.88
2023-05-05T18:33:13.369Z,80.40
2023-05-05T18:35:39.947Z,79.93
2023-05-05T18:38:06.465Z,79.88
2023-05-05T18:40:32.968Z,81.06
2023-05-05T18:43:00.601Z,80.70
2023-05-05T18:45:27.211Z,80.03
2023-05-05T18:47:53.854Z,80.70
2023-05-05T18:50:20.349Z,80.89
2023-05-05T18:52:46.905Z,80.76
2023-05-05T18:55:13.612Z,80.73
2023-05-05T18:57:40.375Z,81.01
2023-05-05T19:00:07.435Z,80.84
2023-05-05T19:02:33.969Z,80.32
2023-05-05T19:05:00.651Z,80.70
2023-05-05T19:07:34.936Z,80.95
2023-05-05T19:10:04.142Z,80.97
2023-05-05T19:12:30.634Z,80.79
2023-05-05T19:14:57.120Z,81.13
2023-05-05T19:17:23.723Z,80.91
2023-05-05T19:19:50.606Z,81.10
2023-05-05T19:22:22.876Z,80.84
2023-05-05T19:24:49.376Z,81.22
2023-05-05T19:27:17.105Z,81.34
2023-05-05T19:29:44.064Z,81.01
2023-05-05T19:32:10.886Z,80.83
2023-05-05T19:34:37.549Z,81.27
2023-05-05T19:37:04.106Z,81.03
2023-05-05T19:39:31.210Z,81.25
2023-05-05T19:41:57.725Z,80.97
2023-05-05T19:44:24.289Z,81.14
2023-05-05T19:46:52.518Z,81.47
2023-05-05T19:49:19.124Z,80.99
2023-05-05T19:51:47.570Z,80.54
2023-05-05T19:54:14.147Z,80.59
2023-05-05T19:56:40.757Z,80.82
2023-05-05T19:59:07.394Z,80.92
2023-05-05T20:01:35.057Z,80.72
2023-05-05T20:04:03.151Z,80.86
2023-05-05T20:06:29.657Z,80.53
2023-05-05T20:08:56.186Z,80.46
2023-05-05T20:11:22.950Z,80.36
2023-05-05T20:13:49.808Z,80.75
2023-05-05T20:16:16.532Z,80.84
2023-05-05T20:18:43.558Z,80.66
2023-05-05T20:21:10.208Z,80.77
2023-05-05T20:23:37.096Z,80.99
2023-05-05T20:26:03.685Z,81.31
2023-05-05T20:28:31.707Z,81.35
2023-05-05T20:30:58.421Z,81.52
2023-05-05T20:33:24.961Z,81.90
2023-05-05T20:35:51.474Z,81.87
2023-05-05T20:38:18.010Z,81.71
2023-05-05T20:40:44.542Z,81.57
2023-05-05T20:43:11.117Z,82.03
2023-05-05T20:45:37.753Z,81.80
2023-05-05T20:48:05.458Z,81.92
2023-05-05T20:50:32.164Z,82.30
2023-05-05T20:52:58.843Z,82.30
2023-05-05T20:55:25.534Z,82.50
2023-05-05T20:57:52.058Z,82.30
2023-05-05T21:00:18.595Z,82.53
2023-05-05T21:02:45.289Z,82.56
2023-05-05T21:05:12.509Z,82.52
2023-05-05T21:07:39.067Z,82.53
2023-05-05T21:10:06.199Z,82.79
2023-05-05T21:12:34.019Z,82.79
2023-05-05T21:15:00.696Z,82.91
2023-05-05T21:17:27.677Z,82.91
2023-05-05T21:19:55.061Z,81.99
2023-05-05T21:22:21.855Z,81.41
2023-05-05T21:24:48.488Z,81.82
2023-05-05T21:27:15.105Z,81.86
2023-05-05T21:29:41.637Z,82.18
2023-05-05T21:32:10.287Z,82.07
2023-05-05T21:34:37.496Z,82.30
2023-05-05T21:37:04.925Z,82.16
2023-05-05T21:39:32.974Z,82.62
2023-05-05T21:42:00.567Z,82.30
2023-05-05T21:44:28.065Z,82.09
2023-05-05T21:46:55.026Z,82.30
2023-05-05T21:49:21.648Z,82.55
2023-05-05T21:51:48.138Z,83.05
2023-05-05T21:54:14.661Z,83.13
2023-05-05T21:56:41.177Z,83.18
2023-05-05T21:59:07.676Z,83.26
2023-05-05T22:01:34.856Z,83.08
2023-05-05T22:04:01.591Z,83.32
2023-05-05T22:06:28.169Z,83.54
2023-05-05T22:08:54.749Z,83.82
2023-05-05T22:11:21.320Z,83.97
2023-05-05T22:13:47.917Z,84.30
2023-05-05T22:16:17.413Z,84.20
2023-05-05T22:18:44.341Z,84.22
2023-05-05T22:21:10.962Z,84.28
2023-05-05T22:23:38.880Z,84.43
2023-05-05T22:26:05.369Z,84.45
2023-05-05T22:28:31.882Z,84.59
2023-05-05T22:30:58.375Z,84.67
2023-05-05T22:33:24.996Z,84.78
2023-05-05T22:35:52.013Z,84.89
2023-05-05T22:38:18.638Z,84.77
2023-05-05T22:40:45.799Z,84.64
2023-05-05T22:43:12.338Z,84.78
2023-05-05T22:45:39.030Z,84.88
2023-05-05T22:48:05.904Z,85.12
2023-05-05T22:50:32.528Z,85.06
2023-05-05T22:52:59.063Z,85.12
2023-05-05T22:55:26.686Z,84.95
2023-05-05T22:57:53.253Z,85.03
2023-05-05T23:00:19.786Z,85.13
2023-05-05T23:02:46.330Z,85.39
2023-05-05T23:05:13.050Z,85.39
2023-05-05T23:07:39.667Z,85.38
2023-05-05T23:10:06.659Z,85.40
2023-05-05T23:12:33.251Z,85.60
2023-05-05T23:14:59.800Z,85.32
2023-05-05T23:17:26.336Z,85.51
2023-05-05T23:19:53.062Z,85.46
2023-05-05T23:22:19.557Z,85.38
2023-05-05T23:24:46.107Z,85.43
2023-05-05T23:27:13.187Z,85.06
2023-05-05T23:29:39.789Z,85.16
2023-05-05T23:32:06.407Z,85.23
2023-05-05T23:34:33.071Z,85.38
2023-05-05T23:36:59.589Z,85.35
2023-05-05T23:39:26.131Z,85.56
2023-05-05T23:41:52.648Z,85.63
2023-05-05T23:44:19.129Z,85.54
2023-05-05T23:46:45.791Z,85.98
2023-05-05T23:49:12.315Z,85.87
2023-05-05T23:51:38.850Z,85.83
2023-05-05T23:54:05.421Z,85.95
2023-05-05T23:56:31.992Z,85.62
2023-05-05T23:58:58.477Z,85.67
